TAF and METAR

METAR for Kaolack Airport

GOOK 250000Z 32004KT CAVOK 28/19 Q1012
Report created 25. jun 02:00
wind 4 knots from NW (320°) Clear sky Temperature 28° with dewpoint at 19° (Humidity 58.18%) Pressure 1012 hPa
No TAF available for Kaolack Airport